createdAt,value
2023-03-30T00:00:46.622Z,16.90
2023-03-30T00:05:51.549Z,16.90
2023-03-30T00:10:55.809Z,16.90
2023-03-30T00:15:58.002Z,17.00
2023-03-30T00:21:03.141Z,16.90
2023-03-30T00:26:07.245Z,16.90
2023-03-30T00:31:11.192Z,16.90
2023-03-30T00:36:14.024Z,16.90
2023-03-30T00:41:16.629Z,16.90
2023-03-30T00:46:18.716Z,16.90
2023-03-30T00:51:20.854Z,16.90
2023-03-30T00:56:26.730Z,16.90
2023-03-30T01:01:29.329Z,16.80
2023-03-30T01:06:33.770Z,16.80
2023-03-30T01:11:36.656Z,16.80
2023-03-30T01:21:45.644Z,16.90
2023-03-30T01:26:50.386Z,17.00
2023-03-30T01:31:54.169Z,17.00
2023-03-30T01:36:57.766Z,17.10
2023-03-30T01:42:09.242Z,17.10
2023-03-30T01:47:32.513Z,17.10
2023-03-30T01:52:43.570Z,17.20
2023-03-30T01:57:55.319Z,17.20
2023-03-30T02:03:02.691Z,17.30
2023-03-30T02:13:08.762Z,17.40
2023-03-30T02:18:10.828Z,17.60
2023-03-30T02:23:13.417Z,17.70
2023-03-30T02:28:15.428Z,17.90
2023-03-30T02:33:29.612Z,17.90
2023-03-30T02:38:54.996Z,18.00
2023-03-30T02:44:07.149Z,18.10
2023-03-30T02:49:09.123Z,18.10
2023-03-30T02:54:27.014Z,18.10
2023-03-30T02:59:48.001Z,18.10
2023-03-30T03:04:51.176Z,18.00
2023-03-30T03:09:53.579Z,18.00
2023-03-30T03:14:57.727Z,18.20
2023-03-30T03:20:04.777Z,18.10
2023-03-30T03:25:07.054Z,18.20
2023-03-30T03:30:10.756Z,18.30
2023-03-30T03:35:14.243Z,18.30
2023-03-30T03:40:16.567Z,18.40
2023-03-30T03:45:19.436Z,18.40
2023-03-30T03:50:22.494Z,18.40
2023-03-30T04:00:27.241Z,18.30
2023-03-30T04:05:31.051Z,18.30
2023-03-30T04:10:34.421Z,18.20
2023-03-30T04:15:36.675Z,18.10
2023-03-30T04:20:38.947Z,18.10
2023-03-30T04:25:41.651Z,18.10
2023-03-30T04:30:45.513Z,17.90
2023-03-30T04:35:54.314Z,17.90
2023-03-30T04:40:57.647Z,17.80
2023-03-30T04:46:00.771Z,17.70
2023-03-30T04:51:04.155Z,17.60
2023-03-30T04:56:07.823Z,17.50
2023-03-30T05:01:10.346Z,17.50
2023-03-30T05:06:13.155Z,17.40
2023-03-30T05:11:15.867Z,17.40
2023-03-30T05:16:18.490Z,17.40
2023-03-30T05:21:21.248Z,17.30
2023-03-30T05:26:24.058Z,17.30
2023-03-30T05:31:26.538Z,17.10
2023-03-30T05:41:31.625Z,17.00
2023-03-30T05:46:34.133Z,17.00
2023-03-30T05:51:36.834Z,16.90
2023-03-30T05:56:42.232Z,16.90
2023-03-30T06:01:46.799Z,16.90
2023-03-30T06:06:48.879Z,16.90
2023-03-30T06:11:51.803Z,16.90
2023-03-30T06:16:54.603Z,16.90
2023-03-30T06:32:05.085Z,16.70
2023-03-30T06:42:13.285Z,16.40
2023-03-30T06:47:16.358Z,16.40
2023-03-30T06:52:18.450Z,16.30
2023-03-30T06:57:20.804Z,16.30
2023-03-30T07:02:23.056Z,16.30
2023-03-30T07:07:27.101Z,16.30
2023-03-30T07:12:29.124Z,16.40
2023-03-30T07:17:32.674Z,16.40
2023-03-30T07:22:35.492Z,16.50
2023-03-30T07:27:38.048Z,16.60
2023-03-30T07:32:40.812Z,16.60
2023-03-30T07:37:43.546Z,16.60
2023-03-30T07:42:45.681Z,16.60
2023-03-30T07:47:48.412Z,16.60
2023-03-30T07:52:51.474Z,16.70
2023-03-30T07:57:53.698Z,16.70
2023-03-30T08:02:56.928Z,16.70
2023-03-30T08:07:59.685Z,16.70
2023-03-30T08:13:02.988Z,16.70
2023-03-30T08:18:08.019Z,16.70
2023-03-30T08:23:10.791Z,16.70
2023-03-30T08:28:12.810Z,16.70
2023-03-30T08:33:15.841Z,16.80
2023-03-30T08:38:19.002Z,16.80
2023-03-30T08:43:30.393Z,16.70
2023-03-30T08:48:37.287Z,16.90
2023-03-30T08:53:39.357Z,17.00
2023-03-30T08:58:50.748Z,17.20
2023-03-30T09:04:02.240Z,17.50
2023-03-30T09:09:05.187Z,17.50
2023-03-30T09:14:11.073Z,17.70
2023-03-30T09:19:16.941Z,17.90
2023-03-30T09:24:24.399Z,18.20
2023-03-30T09:29:28.425Z,18.30
2023-03-30T09:34:45.277Z,18.40
2023-03-30T09:39:47.688Z,18.50
2023-03-30T09:44:58.464Z,18.70
2023-03-30T09:50:01.717Z,18.80
2023-03-30T09:55:22.181Z,18.90
2023-03-30T10:00:32.449Z,19.00
2023-03-30T10:05:35.715Z,19.10
2023-03-30T10:10:40.258Z,19.10
2023-03-30T10:15:44.828Z,19.10
2023-03-30T10:20:51.584Z,19.10
2023-03-30T10:26:02.390Z,19.10
2023-03-30T10:31:07.046Z,19.10
2023-03-30T10:36:09.840Z,19.10
2023-03-30T10:41:22.518Z,19.10
2023-03-30T10:46:24.981Z,19.10
2023-03-30T10:51:46.114Z,19.10
2023-03-30T10:56:51.417Z,19.30
2023-03-30T11:01:56.399Z,19.40
2023-03-30T11:06:59.159Z,19.60
2023-03-30T11:12:13.740Z,19.60
2023-03-30T11:17:25.321Z,19.70
2023-03-30T11:22:41.609Z,19.70
2023-03-30T11:27:51.816Z,19.90
2023-03-30T11:32:55.244Z,20.10
2023-03-30T11:38:16.187Z,20.40
2023-03-30T11:43:19.762Z,20.70
2023-03-30T11:48:27.854Z,21.10
2023-03-30T11:53:33.753Z,21.20
2023-03-30T11:58:38.807Z,21.60
2023-03-30T12:03:42.559Z,21.90
2023-03-30T12:09:04.792Z,22.10
2023-03-30T12:14:22.796Z,22.40
2023-03-30T12:19:28.564Z,22.50
2023-03-30T12:24:37.988Z,22.60
2023-03-30T12:30:01.690Z,22.70
2023-03-30T12:35:25.021Z,22.90
2023-03-30T12:40:27.090Z,22.80
2023-03-30T12:45:32.725Z,22.50
2023-03-30T12:50:51.347Z,22.00
2023-03-30T12:56:12.111Z,21.70
2023-03-30T13:01:14.216Z,21.70
2023-03-30T13:06:28.358Z,21.80
2023-03-30T13:11:44.579Z,22.00
2023-03-30T13:16:48.646Z,22.20
2023-03-30T13:21:56.228Z,22.70
2023-03-30T13:27:10.622Z,23.10
2023-03-30T13:32:15.987Z,23.60
2023-03-30T13:37:17.964Z,24.20
2023-03-30T13:42:40.278Z,24.90
2023-03-30T13:47:50.164Z,25.30
2023-03-30T13:52:53.127Z,25.40
2023-03-30T13:57:59.773Z,25.60
2023-03-30T14:03:37.178Z,25.70
2023-03-30T14:08:39.807Z,25.20
2023-03-30T14:13:42.589Z,24.00
2023-03-30T14:18:44.742Z,23.20
2023-03-30T14:23:51.941Z,23.40
2023-03-30T14:28:58.713Z,24.30
2023-03-30T14:34:00.939Z,25.40
2023-03-30T14:39:04.194Z,26.50
2023-03-30T14:44:07.562Z,27.40
2023-03-30T14:49:21.152Z,28.20
2023-03-30T14:54:24.242Z,28.80
2023-03-30T14:59:27.202Z,28.70
2023-03-30T15:04:33.808Z,28.80
2023-03-30T15:09:37.464Z,29.00
2023-03-30T15:14:40.186Z,29.50
2023-03-30T15:19:42.624Z,29.70
2023-03-30T15:29:47.779Z,29.90
2023-03-30T15:39:52.213Z,30.00
2023-03-30T15:45:11.304Z,29.40
2023-03-30T15:50:14.117Z,28.00
2023-03-30T15:55:22.029Z,27.10
2023-03-30T16:00:27.291Z,26.50
2023-03-30T16:05:31.680Z,25.30
2023-03-30T16:10:33.851Z,24.60
2023-03-30T16:15:35.978Z,24.00
2023-03-30T16:20:38.037Z,23.40
2023-03-30T16:25:45.132Z,22.80
2023-03-30T16:30:49.394Z,22.20
2023-03-30T16:35:51.708Z,21.60
2023-03-30T16:40:55.888Z,21.10
2023-03-30T16:45:57.864Z,20.80
2023-03-30T16:50:59.986Z,20.40
2023-03-30T16:56:02.001Z,20.00
2023-03-30T17:01:04.662Z,19.70
2023-03-30T17:06:07.556Z,19.40
2023-03-30T17:11:10.754Z,19.40
2023-03-30T17:16:15.679Z,19.40
2023-03-30T17:21:17.747Z,19.40
2023-03-30T17:26:19.916Z,19.40
2023-03-30T17:31:22.320Z,19.30
2023-03-30T17:36:25.440Z,19.30
2023-03-30T17:46:29.886Z,19.10
2023-03-30T17:51:31.979Z,19.00
2023-03-30T17:56:33.995Z,19.00
2023-03-30T18:01:36.338Z,18.90
2023-03-30T18:06:38.826Z,18.80
2023-03-30T18:11:40.900Z,18.70
2023-03-30T18:16:43.805Z,18.40
2023-03-30T18:21:46.075Z,18.20
2023-03-30T18:26:48.117Z,17.90
2023-03-30T18:31:50.273Z,17.90
2023-03-30T18:36:52.406Z,17.80
2023-03-30T18:41:54.512Z,17.60
2023-03-30T18:46:56.562Z,17.30
2023-03-30T18:51:58.538Z,17.00
2023-03-30T18:57:00.570Z,16.90
2023-03-30T19:02:02.751Z,17.00
2023-03-30T19:07:05.703Z,16.70
2023-03-30T19:12:10.557Z,16.70
2023-03-30T19:17:15.545Z,16.60
2023-03-30T19:27:20.281Z,16.50
2023-03-30T19:32:22.335Z,16.40
2023-03-30T19:37:24.421Z,16.40
2023-03-30T19:42:28.681Z,16.40
2023-03-30T19:47:31.902Z,16.40
2023-03-30T19:52:34.157Z,16.30
2023-03-30T19:57:37.178Z,16.30
2023-03-30T20:02:40.002Z,16.20
2023-03-30T20:07:43.002Z,16.10
2023-03-30T20:12:46.545Z,16.00
2023-03-30T20:17:48.668Z,15.90
2023-03-30T20:22:53.564Z,15.80
2023-03-30T20:27:55.802Z,15.80
2023-03-30T20:33:07.350Z,15.70
2023-03-30T20:38:10.354Z,15.70
2023-03-30T20:43:12.353Z,15.70
2023-03-30T20:48:26.643Z,15.70
2023-03-30T20:53:33.703Z,15.70
2023-03-30T20:58:36.588Z,15.70
2023-03-30T21:03:41.218Z,15.70
2023-03-30T21:08:43.346Z,15.80
2023-03-30T21:13:46.545Z,15.80
2023-03-30T21:23:51.386Z,15.80
2023-03-30T21:28:53.380Z,15.80
2023-03-30T21:33:55.383Z,15.90
2023-03-30T21:38:59.224Z,15.80
2023-03-30T21:44:01.390Z,15.90
2023-03-30T21:49:03.487Z,15.80
2023-03-30T21:54:06.148Z,15.80
2023-03-30T21:59:08.327Z,15.80
2023-03-30T22:04:10.447Z,15.70
2023-03-30T22:09:12.774Z,15.70
2023-03-30T22:14:14.896Z,15.60
2023-03-30T22:19:18.937Z,15.60
2023-03-30T22:24:20.944Z,15.50
2023-03-30T22:29:23.265Z,15.50
2023-03-30T22:34:25.612Z,15.40
2023-03-30T22:39:27.911Z,15.40
2023-03-30T22:44:32.184Z,15.40
2023-03-30T22:49:34.732Z,15.40
2023-03-30T22:54:37.059Z,15.40
2023-03-30T22:59:39.087Z,15.40
2023-03-30T23:04:47.226Z,15.40
2023-03-30T23:14:52.988Z,15.40
2023-03-30T23:19:58.040Z,15.40
2023-03-30T23:25:00.047Z,15.40
2023-03-30T23:35:05.082Z,15.40
2023-03-30T23:40:08.189Z,15.40
2023-03-30T23:45:10.411Z,15.40
2023-03-30T23:50:12.460Z,15.40
2023-03-30T23:55:15.498Z,15.40
